sensor_id;sensor_type;location;lat;lon;timestamp;pressure;altitude;pressure_sealevel;temperature;humidity
8140;BME280;4111;50.972;7.072;2022-12-11T00:00:43;100711.50;;;1.89;90.13
8140;BME280;4111;50.972;7.072;2022-12-11T00:03:09;100711.16;;;1.92;90.97
8140;BME280;4111;50.972;7.072;2022-12-11T00:05:41;100709.75;;;1.96;90.37
8140;BME280;4111;50.972;7.072;2022-12-11T00:08:08;100718.59;;;1.96;90.38
8140;BME280;4111;50.972;7.072;2022-12-11T00:10:34;100714.47;;;1.94;90.84
8140;BME280;4111;50.972;7.072;2022-12-11T00:13:03;100712.22;;;1.97;90.89
8140;BME280;4111;50.972;7.072;2022-12-11T00:15:30;100716.75;;;1.97;91.37
8140;BME280;4111;50.972;7.072;2022-12-11T00:17:57;100718.00;;;2.01;91.42
8140;BME280;4111;50.972;7.072;2022-12-11T00:20:23;100713.94;;;2.05;91.54
8140;BME280;4111;50.972;7.072;2022-12-11T00:22:50;100712.66;;;2.01;91.38
8140;BME280;4111;50.972;7.072;2022-12-11T00:25:16;100713.06;;;1.98;91.52
8140;BME280;4111;50.972;7.072;2022-12-11T00:27:44;100702.78;;;2.02;91.67
8140;BME280;4111;50.972;7.072;2022-12-11T00:30:12;100711.38;;;1.97;91.64
8140;BME280;4111;50.972;7.072;2022-12-11T00:32:39;100717.66;;;2.04;92.20
8140;BME280;4111;50.972;7.072;2022-12-11T00:35:06;100712.66;;;2.01;92.06
8140;BME280;4111;50.972;7.072;2022-12-11T00:37:32;100711.19;;;1.98;92.22
8140;BME280;4111;50.972;7.072;2022-12-11T00:39:59;100706.88;;;1.97;92.84
8140;BME280;4111;50.972;7.072;2022-12-11T00:42:25;100713.25;;;1.96;92.73
8140;BME280;4111;50.972;7.072;2022-12-11T00:44:52;100709.75;;;1.96;92.87
8140;BME280;4111;50.972;7.072;2022-12-11T00:47:20;100711.56;;;1.95;92.82
8140;BME280;4111;50.972;7.072;2022-12-11T00:49:46;100718.78;;;1.95;92.82
8140;BME280;4111;50.972;7.072;2022-12-11T00:52:15;100710.28;;;1.91;93.05
8140;BME280;4111;50.972;7.072;2022-12-11T00:54:43;100701.06;;;1.94;93.01
8140;BME280;4111;50.972;7.072;2022-12-11T00:57:10;100703.75;;;1.94;93.51
8140;BME280;4111;50.972;7.072;2022-12-11T00:59:36;100703.53;;;1.95;93.17
8140;BME280;4111;50.972;7.072;2022-12-11T01:02:03;100706.88;;;1.97;93.24
8140;BME280;4111;50.972;7.072;2022-12-11T01:04:29;100701.44;;;1.91;93.31
8140;BME280;4111;50.972;7.072;2022-12-11T01:06:55;100703.47;;;1.89;93.33
8140;BME280;4111;50.972;7.072;2022-12-11T01:09:22;100703.94;;;1.92;93.65
8140;BME280;4111;50.972;7.072;2022-12-11T01:12:07;100700.22;;;1.93;93.70
8140;BME280;4111;50.972;7.072;2022-12-11T01:14:33;100704.38;;;1.96;94.38
8140;BME280;4111;50.972;7.072;2022-12-11T01:16:59;100702.34;;;1.98;94.60
8140;BME280;4111;50.972;7.072;2022-12-11T01:19:26;100703.47;;;1.89;94.77
8140;BME280;4111;50.972;7.072;2022-12-11T01:21:53;100708.38;;;1.85;94.82
8140;BME280;4111;50.972;7.072;2022-12-11T01:24:19;100706.78;;;1.91;94.70
8140;BME280;4111;50.972;7.072;2022-12-11T01:26:46;100710.63;;;2.03;94.79
8140;BME280;4111;50.972;7.072;2022-12-11T01:29:12;100709.34;;;1.99;94.41
8140;BME280;4111;50.972;7.072;2022-12-11T01:31:39;100702.78;;;2.02;94.48
8140;BME280;4111;50.972;7.072;2022-12-11T01:34:05;100703.03;;;2.07;94.16
8140;BME280;4111;50.972;7.072;2022-12-11T01:36:32;100697.63;;;2.00;94.15
8140;BME280;4111;50.972;7.072;2022-12-11T01:38:58;100686.47;;;1.96;94.63
8140;BME280;4111;50.972;7.072;2022-12-11T01:41:25;100694.31;;;1.98;95.15
8140;BME280;4111;50.972;7.072;2022-12-11T01:46:30;100695.31;;;1.97;95.07
8140;BME280;4111;50.972;7.072;2022-12-11T01:48:58;100688.38;;;2.03;95.33
8140;BME280;4111;50.972;7.072;2022-12-11T01:51:28;100690.22;;;2.02;94.99
8140;BME280;4111;50.972;7.072;2022-12-11T01:54:00;100692.09;;;2.02;95.52
8140;BME280;4111;50.972;7.072;2022-12-11T01:56:29;100688.19;;;2.04;95.51
8140;BME280;4111;50.972;7.072;2022-12-11T01:59:01;100691.06;;;2.03;95.51
8140;BME280;4111;50.972;7.072;2022-12-11T02:01:41;100689.81;;;2.05;95.58
8140;BME280;4111;50.972;7.072;2022-12-11T02:04:10;100689.19;;;2.03;96.10
8140;BME280;4111;50.972;7.072;2022-12-11T02:06:46;100693.53;;;2.04;96.04
8140;BME280;4111;50.972;7.072;2022-12-11T02:09:18;100682.56;;;1.99;95.90
8140;BME280;4111;50.972;7.072;2022-12-11T02:12:00;100692.41;;;1.92;96.13
8140;BME280;4111;50.972;7.072;2022-12-11T02:17:22;100682.97;;;1.96;96.77
8140;BME280;4111;50.972;7.072;2022-12-11T02:28:28;100679.88;;;1.99;97.09
8140;BME280;4111;50.972;7.072;2022-12-11T02:31:01;100680.53;;;2.01;97.00
8140;BME280;4111;50.972;7.072;2022-12-11T02:33:42;100674.53;;;1.99;96.86
8140;BME280;4111;50.972;7.072;2022-12-11T02:36:10;100670.59;;;1.95;96.83
8140;BME280;4111;50.972;7.072;2022-12-11T02:38:41;100670.41;;;1.96;97.16
8140;BME280;4111;50.972;7.072;2022-12-11T02:41:10;100670.22;;;1.98;96.84
8140;BME280;4111;50.972;7.072;2022-12-11T02:43:37;100666.50;;;1.99;96.68
8140;BME280;4111;50.972;7.072;2022-12-11T02:46:06;100674.41;;;2.07;96.68
8140;BME280;4111;50.972;7.072;2022-12-11T02:48:33;100660.78;;;2.02;96.92
8140;BME280;4111;50.972;7.072;2022-12-11T02:51:02;100669.63;;;2.03;96.36
8140;BME280;4111;50.972;7.072;2022-12-11T02:53:30;100665.09;;;2.03;97.05
8140;BME280;4111;50.972;7.072;2022-12-11T02:56:05;100675.63;;;2.05;96.84
8140;BME280;4111;50.972;7.072;2022-12-11T02:58:35;100669.81;;;2.01;96.75
8140;BME280;4111;50.972;7.072;2022-12-11T03:01:04;100671.72;;;2.07;96.24
8140;BME280;4111;50.972;7.072;2022-12-11T03:03:30;100669.25;;;2.06;96.41
8140;BME280;4111;50.972;7.072;2022-12-11T03:05:57;100663.69;;;2.07;96.08
8140;BME280;4111;50.972;7.072;2022-12-11T03:08:23;100659.56;;;2.05;96.50
8140;BME280;4111;50.972;7.072;2022-12-11T03:10:50;100659.63;;;2.11;96.28
8140;BME280;4111;50.972;7.072;2022-12-11T03:13:19;100665.34;;;2.08;95.78
8140;BME280;4111;50.972;7.072;2022-12-11T03:16:25;100663.69;;;2.07;95.82
8140;BME280;4111;50.972;7.072;2022-12-11T03:21:59;100659.63;;;2.11;95.83
8140;BME280;4111;50.972;7.072;2022-12-11T03:24:34;100661.28;;;2.12;95.53
8140;BME280;4111;50.972;7.072;2022-12-11T03:27:14;100657.31;;;2.08;95.20
8140;BME280;4111;50.972;7.072;2022-12-11T03:29:53;100660.00;;;2.08;95.19
8140;BME280;4111;50.972;7.072;2022-12-11T03:32:24;100662.41;;;2.03;95.28
8140;BME280;4111;50.972;7.072;2022-12-11T03:35:04;100669.44;;;2.04;94.98
8140;BME280;4111;50.972;7.072;2022-12-11T03:37:36;100667.59;;;2.05;95.02
8140;BME280;4111;50.972;7.072;2022-12-11T03:40:16;100667.34;;;2.00;95.45
8140;BME280;4111;50.972;7.072;2022-12-11T03:42:45;100671.84;;;1.99;95.39
8140;BME280;4111;50.972;7.072;2022-12-11T03:45:15;100672.06;;;1.97;95.89
8140;BME280;4111;50.972;7.072;2022-12-11T03:47:43;100663.91;;;2.06;95.54
8140;BME280;4111;50.972;7.072;2022-12-11T03:50:12;100668.16;;;2.00;95.48
8140;BME280;4111;50.972;7.072;2022-12-11T03:52:41;100666.13;;;2.02;95.58
8140;BME280;4111;50.972;7.072;2022-12-11T03:55:13;100656.22;;;2.03;95.49
8140;BME280;4111;50.972;7.072;2022-12-11T03:57:41;100663.69;;;2.07;95.56
8140;BME280;4111;50.972;7.072;2022-12-11T04:00:10;100662.81;;;2.00;95.05
8140;BME280;4111;50.972;7.072;2022-12-11T04:02:37;100652.09;;;2.00;95.27
8140;BME280;4111;50.972;7.072;2022-12-11T04:05:04;100658.59;;;1.91;95.30
8140;BME280;4111;50.972;7.072;2022-12-11T04:07:31;100657.19;;;1.95;95.96
8140;BME280;4111;50.972;7.072;2022-12-11T04:09:57;100660.50;;;1.97;95.73
8140;BME280;4111;50.972;7.072;2022-12-11T04:12:24;100658.00;;;1.95;96.04
8140;BME280;4111;50.972;7.072;2022-12-11T04:14:50;100654.16;;;1.98;96.03
8140;BME280;4111;50.972;7.072;2022-12-11T04:17:33;100650.94;;;2.09;95.78
8140;BME280;4111;50.972;7.072;2022-12-11T04:20:20;100648.66;;;2.06;95.94
8140;BME280;4111;50.972;7.072;2022-12-11T04:23:08;100656.41;;;2.01;95.64
8140;BME280;4111;50.972;7.072;2022-12-11T04:26:09;100653.09;;;1.99;95.49
8140;BME280;4111;50.972;7.072;2022-12-11T04:28:36;100644.63;;;1.95;96.00
8140;BME280;4111;50.972;7.072;2022-12-11T04:31:03;100646.75;;;2.00;96.12
8140;BME280;4111;50.972;7.072;2022-12-11T04:33:30;100649.16;;;1.95;95.71
8140;BME280;4111;50.972;7.072;2022-12-11T04:35:58;100646.75;;;2.00;95.96
8140;BME280;4111;50.972;7.072;2022-12-11T04:38:24;100649.97;;;1.95;95.66
8140;BME280;4111;50.972;7.072;2022-12-11T04:40:58;100645.84;;;1.93;95.94
8140;BME280;4111;50.972;7.072;2022-12-11T04:43:25;100648.66;;;1.85;95.82
8140;BME280;4111;50.972;7.072;2022-12-11T04:46:03;100647.06;;;1.90;96.15
8140;BME280;4111;50.972;7.072;2022-12-11T04:48:31;100646.75;;;2.00;96.06
8140;BME280;4111;50.972;7.072;2022-12-11T04:50:57;100643.81;;;1.95;95.78
8140;BME280;4111;50.972;7.072;2022-12-11T04:53:24;100649.56;;;1.92;95.79
8140;BME280;4111;50.972;7.072;2022-12-11T04:55:51;100635.97;;;1.93;96.65
8140;BME280;4111;50.972;7.072;2022-12-11T04:58:17;100635.13;;;1.93;96.65
8140;BME280;4111;50.972;7.072;2022-12-11T05:00:44;100637.19;;;1.91;96.59
8140;BME280;4111;50.972;7.072;2022-12-11T05:03:11;100639.50;;;1.94;96.89
8140;BME280;4111;50.972;7.072;2022-12-11T05:05:38;100641.38;;;2.00;97.13
8140;BME280;4111;50.972;7.072;2022-12-11T05:08:05;100641.75;;;1.97;97.21
8140;BME280;4111;50.972;7.072;2022-12-11T05:10:31;100640.34;;;2.01;97.07
8140;BME280;4111;50.972;7.072;2022-12-11T05:12:58;100636.41;;;1.97;96.48
8140;BME280;4111;50.972;7.072;2022-12-11T05:15:24;100635.63;;;2.03;97.11
8140;BME280;4111;50.972;7.072;2022-12-11T05:17:51;100633.22;;;2.08;96.65
8140;BME280;4111;50.972;7.072;2022-12-11T05:20:17;100633.09;;;1.95;95.82
8140;BME280;4111;50.972;7.072;2022-12-11T05:22:43;100634.69;;;1.89;96.16
8140;BME280;4111;50.972;7.072;2022-12-11T05:25:10;100629.88;;;2.00;95.88
8140;BME280;4111;50.972;7.072;2022-12-11T05:27:37;100631.06;;;1.97;95.85
8140;BME280;4111;50.972;7.072;2022-12-11T05:30:03;100626.16;;;2.01;95.73
8140;BME280;4111;50.972;7.072;2022-12-11T05:32:30;100626.59;;;2.04;95.69
8140;BME280;4111;50.972;7.072;2022-12-11T05:34:57;100629.91;;;2.06;95.81
8140;BME280;4111;50.972;7.072;2022-12-11T05:37:23;100628.88;;;2.07;95.24
8140;BME280;4111;50.972;7.072;2022-12-11T05:39:49;100626.59;;;2.04;95.41
8140;BME280;4111;50.972;7.072;2022-12-11T05:42:16;100609.69;;;2.04;95.31
8140;BME280;4111;50.972;7.072;2022-12-11T05:44:42;100616.50;;;2.06;95.45
8140;BME280;4111;50.972;7.072;2022-12-11T05:47:09;100602.72;;;2.09;95.52
8140;BME280;4111;50.972;7.072;2022-12-11T05:49:36;100608.53;;;2.13;95.44
8140;BME280;4111;50.972;7.072;2022-12-11T05:52:02;100609.00;;;2.23;95.23
8140;BME280;4111;50.972;7.072;2022-12-11T05:54:29;100608.16;;;2.16;94.40
8140;BME280;4111;50.972;7.072;2022-12-11T05:56:55;100607.97;;;2.17;94.90
8140;BME280;4111;50.972;7.072;2022-12-11T05:59:22;100611.00;;;2.14;94.65
8140;BME280;4111;50.972;7.072;2022-12-11T06:01:48;100605.84;;;2.13;94.21
8140;BME280;4111;50.972;7.072;2022-12-11T06:04:15;100612.16;;;2.05;94.46
8140;BME280;4111;50.972;7.072;2022-12-11T06:06:41;100616.56;;;2.13;94.51
8140;BME280;4111;50.972;7.072;2022-12-11T06:09:13;100615.34;;;2.15;94.18
8140;BME280;4111;50.972;7.072;2022-12-11T06:11:40;100622.16;;;2.18;94.24
8140;BME280;4111;50.972;7.072;2022-12-11T06:14:08;100614.81;;;2.27;94.45
8140;BME280;4111;50.972;7.072;2022-12-11T06:16:35;100623.81;;;2.19;93.73
8140;BME280;4111;50.972;7.072;2022-12-11T06:19:02;100622.63;;;2.22;93.62
8140;BME280;4111;50.972;7.072;2022-12-11T06:21:30;100612.63;;;2.09;93.70
8140;BME280;4111;50.972;7.072;2022-12-11T06:24:00;100620.09;;;2.13;94.32
8140;BME280;4111;50.972;7.072;2022-12-11T06:26:27;100607.59;;;1.99;94.35
8140;BME280;4111;50.972;7.072;2022-12-11T06:28:53;100609.59;;;1.90;94.44
8140;BME280;4111;50.972;7.072;2022-12-11T06:31:20;100610.03;;;1.94;95.04
8140;BME280;4111;50.972;7.072;2022-12-11T06:33:47;100610.84;;;1.94;95.12
8140;BME280;4111;50.972;7.072;2022-12-11T06:36:16;100605.69;;;1.93;95.22
8140;BME280;4111;50.972;7.072;2022-12-11T06:38:43;100615.38;;;1.94;95.59
8140;BME280;4111;50.972;7.072;2022-12-11T06:41:10;100611.84;;;1.93;95.49
8140;BME280;4111;50.972;7.072;2022-12-11T06:43:38;100619.47;;;1.90;95.79
8140;BME280;4111;50.972;7.072;2022-12-11T06:46:07;100610.84;;;1.94;95.58
8140;BME280;4111;50.972;7.072;2022-12-11T06:48:34;100608.84;;;2.03;96.10
8140;BME280;4111;50.972;7.072;2022-12-11T06:51:21;100603.91;;;2.00;95.87
8140;BME280;4111;50.972;7.072;2022-12-11T06:53:52;100604.91;;;1.99;95.92
8140;BME280;4111;50.972;7.072;2022-12-11T06:56:20;100614.63;;;2.00;95.86
8140;BME280;4111;50.972;7.072;2022-12-11T06:58:46;100608.75;;;1.90;95.49
8140;BME280;4111;50.972;7.072;2022-12-11T07:01:16;100613.72;;;1.93;95.84
8140;BME280;4111;50.972;7.072;2022-12-11T07:03:43;100606.31;;;1.95;95.85
8140;BME280;4111;50.972;7.072;2022-12-11T07:06:10;100608.00;;;1.96;95.74
8140;BME280;4111;50.972;7.072;2022-12-11T07:08:37;100617.75;;;1.82;96.12
8140;BME280;4111;50.972;7.072;2022-12-11T07:11:06;100618.75;;;1.81;96.00
8140;BME280;4111;50.972;7.072;2022-12-11T07:13:33;100622.53;;;1.87;96.47
8140;BME280;4111;50.972;7.072;2022-12-11T07:15:59;100621.13;;;1.91;96.55
8140;BME280;4111;50.972;7.072;2022-12-11T07:18:27;100630.19;;;1.90;96.38
8140;BME280;4111;50.972;7.072;2022-12-11T07:20:53;100622.72;;;1.85;96.38
8140;BME280;4111;50.972;7.072;2022-12-11T07:23:20;100638.44;;;1.95;96.70
8140;BME280;4111;50.972;7.072;2022-12-11T07:25:46;100629.78;;;1.93;96.43
8140;BME280;4111;50.972;7.072;2022-12-11T07:28:13;100632.31;;;2.01;96.38
8140;BME280;4111;50.972;7.072;2022-12-11T07:30:42;100635.22;;;2.00;96.28
8140;BME280;4111;50.972;7.072;2022-12-11T07:33:08;100636.28;;;2.05;96.47
8140;BME280;4111;50.972;7.072;2022-12-11T07:35:35;100629.28;;;2.04;96.44
8140;BME280;4111;50.972;7.072;2022-12-11T07:38:02;100639.34;;;2.02;96.71
8140;BME280;4111;50.972;7.072;2022-12-11T07:40:28;100629.47;;;2.03;96.32
8140;BME280;4111;50.972;7.072;2022-12-11T07:42:54;100634.38;;;1.99;96.73
8140;BME280;4111;50.972;7.072;2022-12-11T07:45:21;100632.66;;;1.91;96.90
8140;BME280;4111;50.972;7.072;2022-12-11T07:48:11;100625.56;;;1.84;96.98
8140;BME280;4111;50.972;7.072;2022-12-11T07:50:37;100628.06;;;1.85;97.05
8140;BME280;4111;50.972;7.072;2022-12-11T07:53:05;100624.06;;;1.96;97.61
8140;BME280;4111;50.972;7.072;2022-12-11T07:55:32;100626.97;;;2.01;97.52
8140;BME280;4111;50.972;7.072;2022-12-11T07:57:59;100630.72;;;2.07;97.39
8140;BME280;4111;50.972;7.072;2022-12-11T08:00:25;100628.22;;;2.05;97.30
8140;BME280;4111;50.972;7.072;2022-12-11T08:02:52;100622.50;;;2.08;97.29
8140;BME280;4111;50.972;7.072;2022-12-11T08:05:18;100627.72;;;2.16;96.94
8140;BME280;4111;50.972;7.072;2022-12-11T08:07:45;100623.41;;;2.15;96.98
8140;BME280;4111;50.972;7.072;2022-12-11T08:10:11;100622.66;;;2.00;96.66
8140;BME280;4111;50.972;7.072;2022-12-11T08:13:02;100630.03;;;1.98;96.72
8140;BME280;4111;50.972;7.072;2022-12-11T08:15:52;100625.69;;;1.97;97.07
8140;BME280;4111;50.972;7.072;2022-12-11T08:18:20;100621.44;;;2.03;96.57
8140;BME280;4111;50.972;7.072;2022-12-11T08:20:46;100630.72;;;2.07;96.71
8140;BME280;4111;50.972;7.072;2022-12-11T08:23:13;100621.59;;;2.01;96.76
8140;BME280;4111;50.972;7.072;2022-12-11T08:25:39;100621.59;;;2.01;96.93
8140;BME280;4111;50.972;7.072;2022-12-11T08:28:06;100620.84;;;2.07;96.75
8140;BME280;4111;50.972;7.072;2022-12-11T08:30:32;100621.59;;;2.01;96.54
8140;BME280;4111;50.972;7.072;2022-12-11T08:32:59;100620.78;;;2.01;96.74
8140;BME280;4111;50.972;7.072;2022-12-11T08:35:25;100624.44;;;1.93;97.08
8140;BME280;4111;50.972;7.072;2022-12-11T08:37:52;100619.19;;;2.06;97.72
8140;BME280;4111;50.972;7.072;2022-12-11T08:40:42;100622.06;;;2.33;98.70
8140;BME280;4111;50.972;7.072;2022-12-11T08:43:09;100614.03;;;2.33;98.18
8140;BME280;4111;50.972;7.072;2022-12-11T08:45:37;100621.50;;;2.37;97.70
8140;BME280;4111;50.972;7.072;2022-12-11T08:48:03;100604.97;;;2.34;97.41
8140;BME280;4111;50.972;7.072;2022-12-11T08:50:32;100612.13;;;2.27;97.00
8140;BME280;4111;50.972;7.072;2022-12-11T08:52:58;100611.50;;;2.25;96.82
8140;BME280;4111;50.972;7.072;2022-12-11T08:55:25;100611.84;;;2.15;96.83
8140;BME280;4111;50.972;7.072;2022-12-11T08:57:53;100617.28;;;2.00;96.54
8140;BME280;4111;50.972;7.072;2022-12-11T09:00:19;100614.34;;;1.95;96.68
8140;BME280;4111;50.972;7.072;2022-12-11T09:02:46;100615.63;;;1.99;97.08
8140;BME280;4111;50.972;7.072;2022-12-11T09:05:13;100620.41;;;2.04;97.29
8140;BME280;4111;50.972;7.072;2022-12-11T09:07:39;100618.41;;;2.12;97.59
8140;BME280;4111;50.972;7.072;2022-12-11T09:10:07;100617.00;;;2.16;97.06
8140;BME280;4111;50.972;7.072;2022-12-11T09:12:35;100620.97;;;1.99;97.14
8140;BME280;4111;50.972;7.072;2022-12-11T09:15:03;100615.88;;;2.04;97.42
8140;BME280;4111;50.972;7.072;2022-12-11T09:17:29;100623.50;;;2.07;97.38
8140;BME280;4111;50.972;7.072;2022-12-11T09:19:55;100623.13;;;2.10;97.10
8140;BME280;4111;50.972;7.072;2022-12-11T09:22:22;100631.03;;;2.18;97.48
8140;BME280;4111;50.972;7.072;2022-12-11T09:24:48;100636.09;;;2.07;97.10
8140;BME280;4111;50.972;7.072;2022-12-11T09:27:15;100630.72;;;2.07;97.40
8140;BME280;4111;50.972;7.072;2022-12-11T09:29:42;100628.81;;;2.01;97.26
8140;BME280;4111;50.972;7.072;2022-12-11T09:32:08;100626.59;;;2.04;97.01
8140;BME280;4111;50.972;7.072;2022-12-11T09:34:35;100625.81;;;2.10;97.27
8140;BME280;4111;50.972;7.072;2022-12-11T09:37:01;100623.81;;;2.19;97.39
8140;BME280;4111;50.972;7.072;2022-12-11T09:39:27;100623.81;;;2.19;96.83
8140;BME280;4111;50.972;7.072;2022-12-11T09:42:03;100632.06;;;2.17;97.07
8140;BME280;4111;50.972;7.072;2022-12-11T09:44:45;100616.50;;;2.06;96.46
8140;BME280;4111;50.972;7.072;2022-12-11T09:47:18;100627.38;;;1.98;97.23
8140;BME280;4111;50.972;7.072;2022-12-11T09:49:49;100625.06;;;1.95;97.34
8140;BME280;4111;50.972;7.072;2022-12-11T09:54:56;100622.66;;;1.78;98.04
8140;BME280;4111;50.972;7.072;2022-12-11T09:57:50;100618.88;;;1.73;97.99
8140;BME280;4111;50.972;7.072;2022-12-11T10:00:37;100620.63;;;1.81;98.55
8140;BME280;4111;50.972;7.072;2022-12-11T10:06:02;100622.38;;;1.73;98.55
8140;BME280;4111;50.972;7.072;2022-12-11T10:08:52;100620.63;;;1.81;98.53
8140;BME280;4111;50.972;7.072;2022-12-11T10:11:50;100616.16;;;1.88;98.52
8140;BME280;4111;50.972;7.072;2022-12-11T10:17:19;100611.75;;;2.02;98.63
8140;BME280;4111;50.972;7.072;2022-12-11T10:19:48;100608.75;;;1.90;98.21
8140;BME280;4111;50.972;7.072;2022-12-11T10:22:22;100609.19;;;1.93;98.35
8140;BME280;4111;50.972;7.072;2022-12-11T10:25:28;100598.44;;;1.87;98.59
8140;BME280;4111;50.972;7.072;2022-12-11T10:27:56;100597.16;;;1.83;98.56
8140;BME280;4111;50.972;7.072;2022-12-11T10:30:32;100595.59;;;1.95;98.59
8140;BME280;4111;50.972;7.072;2022-12-11T10:35:57;100591.84;;;1.89;98.40
8140;BME280;4111;50.972;7.072;2022-12-11T10:38:32;100588.94;;;1.84;98.79
8140;BME280;4111;50.972;7.072;2022-12-11T10:41:32;100582.19;;;1.88;98.87
8140;BME280;4111;50.972;7.072;2022-12-11T10:44:17;100580.19;;;1.97;98.68
8140;BME280;4111;50.972;7.072;2022-12-11T10:47:13;100581.84;;;1.98;98.69
8140;BME280;4111;50.972;7.072;2022-12-11T10:49:57;100577.34;;;2.05;98.55
8140;BME280;4111;50.972;7.072;2022-12-11T10:52:27;100577.06;;;1.93;98.40
8140;BME280;4111;50.972;7.072;2022-12-11T10:55:26;100579.34;;;1.96;98.01
8140;BME280;4111;50.972;7.072;2022-12-11T10:57:59;100569.28;;;1.98;97.89
8140;BME280;4111;50.972;7.072;2022-12-11T11:00:38;100576.72;;;2.03;97.94
8140;BME280;4111;50.972;7.072;2022-12-11T11:03:50;100571.13;;;1.98;97.91
8140;BME280;4111;50.972;7.072;2022-12-11T11:06:20;100563.09;;;1.98;97.50
8140;BME280;4111;50.972;7.072;2022-12-11T11:08:49;100557.34;;;2.01;97.33
8140;BME280;4111;50.972;7.072;2022-12-11T11:11:27;100562.94;;;2.06;97.06
8140;BME280;4111;50.972;7.072;2022-12-11T11:14:12;100565.06;;;1.89;97.20
8140;BME280;4111;50.972;7.072;2022-12-11T11:16:41;100565.16;;;1.96;97.54
8140;BME280;4111;50.972;7.072;2022-12-11T11:19:18;100566.78;;;1.97;97.45
8140;BME280;4111;50.972;7.072;2022-12-11T11:22:06;100561.88;;;2.01;97.49
8140;BME280;4111;50.972;7.072;2022-12-11T11:24:53;100554.47;;;2.03;97.03
8140;BME280;4111;50.972;7.072;2022-12-11T11:27:28;100555.41;;;2.16;96.77
8140;BME280;4111;50.972;7.072;2022-12-11T11:30:03;100556.28;;;2.24;96.53
8140;BME280;4111;50.972;7.072;2022-12-11T11:32:34;100558.09;;;2.23;96.37
8140;BME280;4111;50.972;7.072;2022-12-11T11:37:40;100544.09;;;2.21;96.01
8140;BME280;4111;50.972;7.072;2022-12-11T11:40:14;100537.56;;;2.30;96.36
8140;BME280;4111;50.972;7.072;2022-12-11T11:43:04;100526.28;;;2.42;95.89
8140;BME280;4111;50.972;7.072;2022-12-11T11:45:43;100534.53;;;2.47;95.61
8140;BME280;4111;50.972;7.072;2022-12-11T11:48:26;100530.66;;;2.49;95.44
8140;BME280;4111;50.972;7.072;2022-12-11T11:50:55;100532.94;;;2.52;95.22
8140;BME280;4111;50.972;7.072;2022-12-11T11:53:30;100519.78;;;2.57;95.04
8140;BME280;4111;50.972;7.072;2022-12-11T12:01:18;100528.50;;;2.73;94.64
8140;BME280;4111;50.972;7.072;2022-12-11T12:03:46;100528.09;;;2.76;94.53
8140;BME280;4111;50.972;7.072;2022-12-11T12:06:27;100528.50;;;2.73;94.05
8140;BME280;4111;50.972;7.072;2022-12-11T12:11:46;100519.59;;;2.66;93.21
8140;BME280;4111;50.972;7.072;2022-12-11T12:14:24;100523.13;;;2.73;93.04
8140;BME280;4111;50.972;7.072;2022-12-11T12:20:08;100527.72;;;2.86;92.35
8140;BME280;4111;50.972;7.072;2022-12-11T12:23:01;100516.97;;;2.86;91.77
8140;BME280;4111;50.972;7.072;2022-12-11T12:25:52;100527.25;;;2.75;91.76
8140;BME280;4111;50.972;7.072;2022-12-11T12:31:16;100527.63;;;2.66;90.84
8140;BME280;4111;50.972;7.072;2022-12-11T12:33:59;100535.06;;;2.64;90.82
8140;BME280;4111;50.972;7.072;2022-12-11T12:36:45;100535.88;;;2.64;90.91
8140;BME280;4111;50.972;7.072;2022-12-11T12:45:12;100521.03;;;2.62;90.99
8140;BME280;4111;50.972;7.072;2022-12-11T12:48:08;100516.72;;;2.74;91.19
8140;BME280;4111;50.972;7.072;2022-12-11T12:50:59;100518.41;;;2.82;91.17
8140;BME280;4111;50.972;7.072;2022-12-11T12:53:27;100514.53;;;2.91;91.25
8140;BME280;4111;50.972;7.072;2022-12-11T12:55:56;100504.63;;;2.91;90.98
8140;BME280;4111;50.972;7.072;2022-12-11T13:04:06;100493.09;;;2.97;90.53
8140;BME280;4111;50.972;7.072;2022-12-11T13:06:57;100488.16;;;3.01;90.23
8140;BME280;4111;50.972;7.072;2022-12-11T13:10:20;100482.41;;;3.04;90.05
8140;BME280;4111;50.972;7.072;2022-12-11T13:13:31;100480.53;;;3.05;89.59
8140;BME280;4111;50.972;7.072;2022-12-11T13:16:26;100483.22;;;3.05;89.41
8140;BME280;4111;50.972;7.072;2022-12-11T13:22:22;100495.84;;;3.24;89.14
8140;BME280;4111;50.972;7.072;2022-12-11T13:25:44;100500.94;;;3.06;88.33
8140;BME280;4111;50.972;7.072;2022-12-11T13:31:36;100498.44;;;2.97;87.44
8140;BME280;4111;50.972;7.072;2022-12-11T13:34:32;100498.03;;;2.94;87.29
8140;BME280;4111;50.972;7.072;2022-12-11T13:37:30;100496.81;;;2.96;87.66
8140;BME280;4111;50.972;7.072;2022-12-11T13:40:02;100488.78;;;3.03;87.36
8140;BME280;4111;50.972;7.072;2022-12-11T13:42:33;100495.59;;;3.12;87.36
8140;BME280;4111;50.972;7.072;2022-12-11T13:45:02;100493.34;;;3.16;87.14
8140;BME280;4111;50.972;7.072;2022-12-11T13:47:30;100503.22;;;3.09;86.92
8140;BME280;4111;50.972;7.072;2022-12-11T13:50:21;100487.97;;;3.03;87.14
8140;BME280;4111;50.972;7.072;2022-12-11T13:52:54;100496.00;;;3.03;87.22
8140;BME280;4111;50.972;7.072;2022-12-11T13:55:29;100499.31;;;3.05;87.48
8140;BME280;4111;50.972;7.072;2022-12-11T13:57:56;100513.34;;;3.07;87.58
8140;BME280;4111;50.972;7.072;2022-12-11T14:00:28;100511.88;;;2.97;87.38
8140;BME280;4111;50.972;7.072;2022-12-11T14:03:00;100512.91;;;2.96;87.23
8140;BME280;4111;50.972;7.072;2022-12-11T14:05:27;100513.72;;;2.97;87.25
8140;BME280;4111;50.972;7.072;2022-12-11T14:07:55;100510.84;;;2.98;87.51
8140;BME280;4111;50.972;7.072;2022-12-11T14:10:26;100519.72;;;2.92;87.40
8140;BME280;4111;50.972;7.072;2022-12-11T14:13:22;100521.56;;;2.98;87.36
8140;BME280;4111;50.972;7.072;2022-12-11T14:15:50;100522.59;;;2.97;87.32
8140;BME280;4111;50.972;7.072;2022-12-11T14:18:23;100527.56;;;3.01;87.37
8140;BME280;4111;50.972;7.072;2022-12-11T14:20:56;100522.41;;;2.99;87.70
8140;BME280;4111;50.972;7.072;2022-12-11T14:23:28;100519.53;;;3.01;87.53
8140;BME280;4111;50.972;7.072;2022-12-11T14:26:01;100510.22;;;2.96;87.63
8140;BME280;4111;50.972;7.072;2022-12-11T14:28:35;100515.59;;;2.96;87.81
8140;BME280;4111;50.972;7.072;2022-12-11T14:31:04;100515.97;;;2.93;87.88
8140;BME280;4111;50.972;7.072;2022-12-11T14:33:35;100519.97;;;3.37;89.75
8140;BME280;4111;50.972;7.072;2022-12-11T14:36:03;100524.13;;;3.27;88.84
8140;BME280;4111;50.972;7.072;2022-12-11T14:38:35;100528.66;;;3.26;88.46
8140;BME280;4111;50.972;7.072;2022-12-11T14:41:12;100521.59;;;3.12;87.79
8140;BME280;4111;50.972;7.072;2022-12-11T14:43:44;100523.88;;;3.15;87.91
8140;BME280;4111;50.972;7.072;2022-12-11T14:46:19;100520.34;;;3.08;87.61
8140;BME280;4111;50.972;7.072;2022-12-11T14:49:03;100521.19;;;3.15;87.48
8140;BME280;4111;50.972;7.072;2022-12-11T14:51:34;100524.72;;;3.22;87.69